Shawnee, WY

4:00 PM MDT on September 30, 2014 (GMT -0600)
Converse County | Change Station
CLOSE
Current Station
Airport
Location: Douglas,
Elevation: 4928 ft
Nearby Weather Stations

Elev 4928 ft 42.80 °N, 105.38 °W | Updated 7 minutes ago

Partly Cloudy
Partly Cloudy
63 °F
Feels Like 63 °F
N
17
Wind Variable Wind from West

Today
High -- | Low -- °F
--% Chance of Precip.
Yesterday
High -- | Low -- °F
Precip. -- in
6:56 AM 6:43 PM
Waxing Crescent, 40% visible
Pressure 29.60 in
Visibility 10.0 miles
Clouds Few 8000 ft
Overcast 11000 ft
Dew Point 37 °F
Humidity 38%
Rainfall 0.01 in
Snow Depth 0 in , 0 in , 0 in
UV 1 out of 12
Pollen 2.90 out of 12
Air Quality Not available.
Flu Activity Not available.
METAR KDGW 302153Z AUTO 27015KT 10SM FEW080 OVC110 17/03 A2972 RMK AO2 PK WND 28033/2119 SLP024 T01720028

More Conditions Fewer Conditions

Pressure 29.60 in
Visibility 10.0 miles
Clouds Few 8000 ft
Overcast 11000 ft
Dew Point 37 °F
Humidity 38%
Rainfall 0.01 in
Snow Depth 0 in , 0 in , 0 in
UV 1 out of 12
Pollen 2.90 out of 12
Air Quality Not available.
Flu Activity Not available.
METAR KDGW 302153Z AUTO 27015KT 10SM FEW080 OVC110 17/03 A2972 RMK AO2 PK WND 28033/2119 SLP024 T01720028

More Conditions Fewer Conditions

10-Day Weather Forecast

Almanac

Astronomy

Sep. 30, 2014 Rise Set
Actual Time 6:56 AM MDT 6:43 PM MDT
Civil Twilight 6:28 AM MDT 7:11 PM MDT
Nautical Twilight 5:55 AM MDT 7:43 PM MDT
Astronomical Twilight 5:22 AM MDT 8:16 PM MDT
Moon 1:12 PM MDT 11:09 PM MDT
Length of Visible Light 12h 43m
Length of Day
11h 46m
Tomorrow will be 2m 51s shorter.
Waxing Crescent, 40% of the Moon is Illuminated
Today
Waxing Crescent
Oct 1
First Quarter
Oct 8
Full
Oct 15
Last Quarter
Oct 23
New

Today's Extremes

State Highs State Lows

Community

WunderPhotos

Upload Photos

1,757,759 photos uploaded!

Nearby

Snow Depth

Station Depth Elevation
Thumb Divide 0 in 7980 ft
St. Lawrence Alt 0 in 8620 ft
Base Camp 0 in 7030 ft
Sylvan Road 0 in 7120 ft
Burgess Junction 0 in 7880 ft

Earthquake Activity

City Distance Mag. Time & Date
No recent earthquake activity has been reported nearby.
Minimum magnitude displayed is 2.5.

Coastal Water Temperatures

Place Temperature
No Stations Reporting

Nearby Weather Stations